sensor_id;sensor_type;location;lat;lon;timestamp;P1;durP1;ratioP1;P2;durP2;ratioP2
22019;SDS011;51298;53.362;-1.518;2024-03-02T00:01:16;0.88;;;0.85;;
22019;SDS011;51298;53.362;-1.518;2024-03-02T00:04:03;1.35;;;1.25;;
22019;SDS011;51298;53.362;-1.518;2024-03-02T00:06:39;0.88;;;0.55;;
22019;SDS011;51298;53.362;-1.518;2024-03-02T00:09:27;2.85;;;1.63;;
22019;SDS011;51298;53.362;-1.518;2024-03-02T00:12:01;1.17;;;1.10;;
22019;SDS011;51298;53.362;-1.518;2024-03-02T00:14:49;1.83;;;1.48;;
22019;SDS011;51298;53.362;-1.518;2024-03-02T00:17:25;3.90;;;2.15;;
22019;SDS011;51298;53.362;-1.518;2024-03-02T00:20:12;1.08;;;0.95;;
22019;SDS011;51298;53.362;-1.518;2024-03-02T00:22:51;4.20;;;2.45;;
22019;SDS011;51298;53.362;-1.518;2024-03-02T00:25:44;6.13;;;1.67;;
22019;SDS011;51298;53.362;-1.518;2024-03-02T00:28:20;0.90;;;0.77;;
22019;SDS011;51298;53.362;-1.518;2024-03-02T00:31:13;1.42;;;1.33;;
22019;SDS011;51298;53.362;-1.518;2024-03-02T00:33:48;2.67;;;2.47;;
22019;SDS011;51298;53.362;-1.518;2024-03-02T00:36:36;1.58;;;1.48;;
22019;SDS011;51298;53.362;-1.518;2024-03-02T00:39:08;2.08;;;1.27;;
22019;SDS011;51298;53.362;-1.518;2024-03-02T00:41:58;2.65;;;0.60;;
22019;SDS011;51298;53.362;-1.518;2024-03-02T00:44:31;1.65;;;1.55;;
22019;SDS011;51298;53.362;-1.518;2024-03-02T00:47:20;1.33;;;1.23;;
22019;SDS011;51298;53.362;-1.518;2024-03-02T00:49:53;3.47;;;1.60;;
22019;SDS011;51298;53.362;-1.518;2024-03-02T00:52:40;4.00;;;1.45;;
22019;SDS011;51298;53.362;-1.518;2024-03-02T00:55:14;2.10;;;1.90;;
22019;SDS011;51298;53.362;-1.518;2024-03-02T00:58:02;1.50;;;1.40;;
22019;SDS011;51298;53.362;-1.518;2024-03-02T01:00:35;1.23;;;1.13;;
22019;SDS011;51298;53.362;-1.518;2024-03-02T01:03:21;0.98;;;0.98;;
22019;SDS011;51298;53.362;-1.518;2024-03-02T01:05:55;3.85;;;2.33;;
22019;SDS011;51298;53.362;-1.518;2024-03-02T01:08:41;1.77;;;1.65;;
22019;SDS011;51298;53.362;-1.518;2024-03-02T01:11:14;1.38;;;1.23;;
22019;SDS011;51298;53.362;-1.518;2024-03-02T01:14:01;3.40;;;2.47;;
22019;SDS011;51298;53.362;-1.518;2024-03-02T01:16:33;5.25;;;1.50;;
22019;SDS011;51298;53.362;-1.518;2024-03-02T01:19:19;1.23;;;1.15;;
22019;SDS011;51298;53.362;-1.518;2024-03-02T01:21:56;1.95;;;1.17;;
22019;SDS011;51298;53.362;-1.518;2024-03-02T01:24:44;1.65;;;1.50;;
22019;SDS011;51298;53.362;-1.518;2024-03-02T01:27:17;2.42;;;2.05;;
22019;SDS011;51298;53.362;-1.518;2024-03-02T01:30:05;2.00;;;1.23;;
22019;SDS011;51298;53.362;-1.518;2024-03-02T01:32:38;2.00;;;1.73;;
22019;SDS011;51298;53.362;-1.518;2024-03-02T01:35:25;1.05;;;1.00;;
22019;SDS011;51298;53.362;-1.518;2024-03-02T01:38:00;2.45;;;1.30;;
22019;SDS011;51298;53.362;-1.518;2024-03-02T01:40:46;1.60;;;1.33;;
22019;SDS011;51298;53.362;-1.518;2024-03-02T01:43:20;1.65;;;1.55;;
22019;SDS011;51298;53.362;-1.518;2024-03-02T01:46:07;2.60;;;1.15;;
22019;SDS011;51298;53.362;-1.518;2024-03-02T01:48:42;1.60;;;1.50;;
22019;SDS011;51298;53.362;-1.518;2024-03-02T01:51:29;3.47;;;1.92;;
22019;SDS011;51298;53.362;-1.518;2024-03-02T01:54:02;1.77;;;1.15;;
22019;SDS011;51298;53.362;-1.518;2024-03-02T01:56:51;2.42;;;0.80;;
22019;SDS011;51298;53.362;-1.518;2024-03-02T01:59:28;3.80;;;1.83;;
22019;SDS011;51298;53.362;-1.518;2024-03-02T02:02:15;2.50;;;2.30;;
22019;SDS011;51298;53.362;-1.518;2024-03-02T02:04:49;1.25;;;1.02;;
22019;SDS011;51298;53.362;-1.518;2024-03-02T02:07:36;1.45;;;1.05;;
22019;SDS011;51298;53.362;-1.518;2024-03-02T02:10:12;9.10;;;1.95;;
22019;SDS011;51298;53.362;-1.518;2024-03-02T02:13:00;1.33;;;1.23;;
22019;SDS011;51298;53.362;-1.518;2024-03-02T02:15:32;0.80;;;0.80;;
22019;SDS011;51298;53.362;-1.518;2024-03-02T02:18:19;2.47;;;1.02;;
22019;SDS011;51298;53.362;-1.518;2024-03-02T02:20:51;4.97;;;3.45;;
22019;SDS011;51298;53.362;-1.518;2024-03-02T02:23:39;3.03;;;2.10;;
22019;SDS011;51298;53.362;-1.518;2024-03-02T02:26:14;1.60;;;1.23;;
22019;SDS011;51298;53.362;-1.518;2024-03-02T02:29:00;3.10;;;2.47;;
22019;SDS011;51298;53.362;-1.518;2024-03-02T02:31:37;9.45;;;1.67;;
22019;SDS011;51298;53.362;-1.518;2024-03-02T02:34:23;2.53;;;1.92;;
22019;SDS011;51298;53.362;-1.518;2024-03-02T02:36:56;4.03;;;2.30;;
22019;SDS011;51298;53.362;-1.518;2024-03-02T02:39:42;1.77;;;0.90;;
22019;SDS011;51298;53.362;-1.518;2024-03-02T02:42:16;1.17;;;0.63;;
22019;SDS011;51298;53.362;-1.518;2024-03-02T02:45:03;4.13;;;1.48;;
22019;SDS011;51298;53.362;-1.518;2024-03-02T02:47:36;3.03;;;1.67;;
22019;SDS011;51298;53.362;-1.518;2024-03-02T02:50:24;5.22;;;2.55;;
22019;SDS011;51298;53.362;-1.518;2024-03-02T02:52:56;1.75;;;1.38;;
22019;SDS011;51298;53.362;-1.518;2024-03-02T02:55:42;1.58;;;1.42;;
22019;SDS011;51298;53.362;-1.518;2024-03-02T02:58:16;0.77;;;0.77;;
22019;SDS011;51298;53.362;-1.518;2024-03-02T03:01:04;2.80;;;1.75;;
22019;SDS011;51298;53.362;-1.518;2024-03-02T03:03:36;1.60;;;1.45;;
22019;SDS011;51298;53.362;-1.518;2024-03-02T03:06:23;0.85;;;0.60;;
22019;SDS011;51298;53.362;-1.518;2024-03-02T03:08:56;1.88;;;1.23;;
22019;SDS011;51298;53.362;-1.518;2024-03-02T03:11:42;2.25;;;1.55;;
22019;SDS011;51298;53.362;-1.518;2024-03-02T03:14:16;9.77;;;1.75;;
22019;SDS011;51298;53.362;-1.518;2024-03-02T03:17:03;1.52;;;1.42;;
22019;SDS011;51298;53.362;-1.518;2024-03-02T03:19:38;2.53;;;2.35;;
22019;SDS011;51298;53.362;-1.518;2024-03-02T03:22:23;2.55;;;1.70;;
22019;SDS011;51298;53.362;-1.518;2024-03-02T03:24:56;2.72;;;2.40;;
22019;SDS011;51298;53.362;-1.518;2024-03-02T03:27:47;1.85;;;1.75;;
22019;SDS011;51298;53.362;-1.518;2024-03-02T03:30:20;2.50;;;1.98;;
22019;SDS011;51298;53.362;-1.518;2024-03-02T03:33:07;1.38;;;1.27;;
22019;SDS011;51298;53.362;-1.518;2024-03-02T03:35:40;1.00;;;1.00;;
22019;SDS011;51298;53.362;-1.518;2024-03-02T03:38:27;4.80;;;1.90;;
22019;SDS011;51298;53.362;-1.518;2024-03-02T03:41:03;3.80;;;1.40;;
22019;SDS011;51298;53.362;-1.518;2024-03-02T03:43:48;1.08;;;1.02;;
22019;SDS011;51298;53.362;-1.518;2024-03-02T03:46:21;1.48;;;1.42;;
22019;SDS011;51298;53.362;-1.518;2024-03-02T03:49:09;3.75;;;2.30;;
22019;SDS011;51298;53.362;-1.518;2024-03-02T03:51:42;2.20;;;1.77;;
22019;SDS011;51298;53.362;-1.518;2024-03-02T03:54:35;0.88;;;0.88;;
22019;SDS011;51298;53.362;-1.518;2024-03-02T03:57:09;1.65;;;1.55;;
22019;SDS011;51298;53.362;-1.518;2024-03-02T03:59:55;2.97;;;2.67;;
22019;SDS011;51298;53.362;-1.518;2024-03-02T04:02:38;2.30;;;2.10;;
22019;SDS011;51298;53.362;-1.518;2024-03-02T04:05:24;7.72;;;2.40;;
22019;SDS011;51298;53.362;-1.518;2024-03-02T04:07:57;4.85;;;3.00;;
22019;SDS011;51298;53.362;-1.518;2024-03-02T04:10:44;2.75;;;1.63;;
22019;SDS011;51298;53.362;-1.518;2024-03-02T04:13:16;3.83;;;3.10;;
22019;SDS011;51298;53.362;-1.518;2024-03-02T04:16:04;1.80;;;1.65;;
22019;SDS011;51298;53.362;-1.518;2024-03-02T04:18:38;2.03;;;1.85;;
22019;SDS011;51298;53.362;-1.518;2024-03-02T04:21:25;2.42;;;1.85;;
22019;SDS011;51298;53.362;-1.518;2024-03-02T04:23:58;2.88;;;2.47;;
22019;SDS011;51298;53.362;-1.518;2024-03-02T04:26:46;2.40;;;1.80;;
22019;SDS011;51298;53.362;-1.518;2024-03-02T04:29:19;4.05;;;2.50;;
22019;SDS011;51298;53.362;-1.518;2024-03-02T04:32:06;3.28;;;1.80;;
22019;SDS011;51298;53.362;-1.518;2024-03-02T04:34:40;2.13;;;1.58;;
22019;SDS011;51298;53.362;-1.518;2024-03-02T04:37:27;2.55;;;1.60;;
22019;SDS011;51298;53.362;-1.518;2024-03-02T04:40:01;1.65;;;1.55;;
22019;SDS011;51298;53.362;-1.518;2024-03-02T04:42:49;3.88;;;2.03;;
22019;SDS011;51298;53.362;-1.518;2024-03-02T04:45:23;5.05;;;3.05;;
22019;SDS011;51298;53.362;-1.518;2024-03-02T04:48:12;10.75;;;1.95;;
22019;SDS011;51298;53.362;-1.518;2024-03-02T04:50:46;4.05;;;3.65;;
22019;SDS011;51298;53.362;-1.518;2024-03-02T04:53:32;6.05;;;3.05;;
22019;SDS011;51298;53.362;-1.518;2024-03-02T04:56:05;3.47;;;2.90;;
22019;SDS011;51298;53.362;-1.518;2024-03-02T04:59:00;2.58;;;2.30;;
22019;SDS011;51298;53.362;-1.518;2024-03-02T05:01:33;2.63;;;2.38;;
22019;SDS011;51298;53.362;-1.518;2024-03-02T05:04:19;12.27;;;4.22;;
22019;SDS011;51298;53.362;-1.518;2024-03-02T05:06:53;3.40;;;3.20;;
22019;SDS011;51298;53.362;-1.518;2024-03-02T05:09:39;3.10;;;2.67;;
22019;SDS011;51298;53.362;-1.518;2024-03-02T05:12:12;5.57;;;3.13;;
22019;SDS011;51298;53.362;-1.518;2024-03-02T05:15:34;3.10;;;1.65;;
22019;SDS011;51298;53.362;-1.518;2024-03-02T05:18:07;4.03;;;2.20;;
22019;SDS011;51298;53.362;-1.518;2024-03-02T05:20:53;4.80;;;4.05;;
22019;SDS011;51298;53.362;-1.518;2024-03-02T05:23:27;8.73;;;6.22;;
22019;SDS011;51298;53.362;-1.518;2024-03-02T05:26:12;6.05;;;3.03;;
22019;SDS011;51298;53.362;-1.518;2024-03-02T05:28:45;5.32;;;2.90;;
22019;SDS011;51298;53.362;-1.518;2024-03-02T05:31:36;4.20;;;3.88;;
22019;SDS011;51298;53.362;-1.518;2024-03-02T05:34:09;3.08;;;2.80;;
22019;SDS011;51298;53.362;-1.518;2024-03-02T05:36:56;2.33;;;2.13;;
22019;SDS011;51298;53.362;-1.518;2024-03-02T05:39:31;5.68;;;4.38;;
22019;SDS011;51298;53.362;-1.518;2024-03-02T05:42:20;5.88;;;3.13;;
22019;SDS011;51298;53.362;-1.518;2024-03-02T05:44:53;3.95;;;3.55;;
22019;SDS011;51298;53.362;-1.518;2024-03-02T05:47:40;4.85;;;2.97;;
22019;SDS011;51298;53.362;-1.518;2024-03-02T05:50:13;4.50;;;1.92;;
22019;SDS011;51298;53.362;-1.518;2024-03-02T05:53:00;3.00;;;2.58;;
22019;SDS011;51298;53.362;-1.518;2024-03-02T05:55:34;4.22;;;2.65;;
22019;SDS011;51298;53.362;-1.518;2024-03-02T05:58:21;5.95;;;3.03;;
22019;SDS011;51298;53.362;-1.518;2024-03-02T06:01:14;3.30;;;2.97;;
22019;SDS011;51298;53.362;-1.518;2024-03-02T06:04:20;6.05;;;4.03;;
22019;SDS011;51298;53.362;-1.518;2024-03-02T06:06:53;6.82;;;3.45;;
22019;SDS011;51298;53.362;-1.518;2024-03-02T06:09:40;3.10;;;2.53;;
22019;SDS011;51298;53.362;-1.518;2024-03-02T06:12:13;15.48;;;3.10;;
22019;SDS011;51298;53.362;-1.518;2024-03-02T06:15:04;4.38;;;2.83;;
22019;SDS011;51298;53.362;-1.518;2024-03-02T06:17:37;3.25;;;1.88;;
22019;SDS011;51298;53.362;-1.518;2024-03-02T06:20:25;10.85;;;2.97;;
22019;SDS011;51298;53.362;-1.518;2024-03-02T06:22:59;3.58;;;2.85;;
22019;SDS011;51298;53.362;-1.518;2024-03-02T06:25:46;6.82;;;4.28;;
22019;SDS011;51298;53.362;-1.518;2024-03-02T06:28:23;5.25;;;3.38;;
22019;SDS011;51298;53.362;-1.518;2024-03-02T06:31:08;4.63;;;2.22;;
22019;SDS011;51298;53.362;-1.518;2024-03-02T06:33:41;2.10;;;1.42;;
22019;SDS011;51298;53.362;-1.518;2024-03-02T06:36:28;14.80;;;5.82;;
22019;SDS011;51298;53.362;-1.518;2024-03-02T06:39:01;7.57;;;4.90;;
22019;SDS011;51298;53.362;-1.518;2024-03-02T06:41:48;5.85;;;3.00;;
22019;SDS011;51298;53.362;-1.518;2024-03-02T06:44:21;3.03;;;2.70;;
22019;SDS011;51298;53.362;-1.518;2024-03-02T06:47:08;4.28;;;2.55;;
22019;SDS011;51298;53.362;-1.518;2024-03-02T06:49:41;4.80;;;4.10;;
22019;SDS011;51298;53.362;-1.518;2024-03-02T06:52:20;2.83;;;2.63;;
22019;SDS011;51298;53.362;-1.518;2024-03-02T06:54:59;8.32;;;2.65;;
22019;SDS011;51298;53.362;-1.518;2024-03-02T06:57:32;4.90;;;2.60;;
22019;SDS011;51298;53.362;-1.518;2024-03-02T07:00:19;3.03;;;1.95;;
22019;SDS011;51298;53.362;-1.518;2024-03-02T07:02:55;2.97;;;1.80;;
22019;SDS011;51298;53.362;-1.518;2024-03-02T07:05:40;6.97;;;4.22;;
22019;SDS011;51298;53.362;-1.518;2024-03-02T07:08:13;7.82;;;3.88;;
22019;SDS011;51298;53.362;-1.518;2024-03-02T07:10:59;2.97;;;2.78;;
22019;SDS011;51298;53.362;-1.518;2024-03-02T07:13:33;3.47;;;3.13;;
22019;SDS011;51298;53.362;-1.518;2024-03-02T07:16:18;2.47;;;1.88;;
22019;SDS011;51298;53.362;-1.518;2024-03-02T07:19:02;1.88;;;1.73;;
22019;SDS011;51298;53.362;-1.518;2024-03-02T07:21:48;3.35;;;3.05;;
22019;SDS011;51298;53.362;-1.518;2024-03-02T07:24:21;4.18;;;2.53;;
22019;SDS011;51298;53.362;-1.518;2024-03-02T07:27:08;8.20;;;5.07;;
22019;SDS011;51298;53.362;-1.518;2024-03-02T07:29:44;2.08;;;1.92;;
22019;SDS011;51298;53.362;-1.518;2024-03-02T07:32:31;7.30;;;2.83;;
22019;SDS011;51298;53.362;-1.518;2024-03-02T07:35:04;8.35;;;4.95;;
22019;SDS011;51298;53.362;-1.518;2024-03-02T07:37:50;13.50;;;3.47;;
22019;SDS011;51298;53.362;-1.518;2024-03-02T07:40:23;5.78;;;3.40;;
22019;SDS011;51298;53.362;-1.518;2024-03-02T07:43:14;1.90;;;1.80;;
22019;SDS011;51298;53.362;-1.518;2024-03-02T07:45:47;3.58;;;2.58;;
22019;SDS011;51298;53.362;-1.518;2024-03-02T07:48:36;2.80;;;2.58;;
22019;SDS011;51298;53.362;-1.518;2024-03-02T07:51:10;8.80;;;2.60;;
22019;SDS011;51298;53.362;-1.518;2024-03-02T07:54:00;3.97;;;1.90;;
22019;SDS011;51298;53.362;-1.518;2024-03-02T07:56:33;11.23;;;2.83;;
22019;SDS011;51298;53.362;-1.518;2024-03-02T07:59:19;4.18;;;3.17;;
22019;SDS011;51298;53.362;-1.518;2024-03-02T08:01:54;1.75;;;1.65;;
22019;SDS011;51298;53.362;-1.518;2024-03-02T08:04:40;3.10;;;2.25;;
22019;SDS011;51298;53.362;-1.518;2024-03-02T08:07:13;4.68;;;3.85;;
22019;SDS011;51298;53.362;-1.518;2024-03-02T08:10:00;1.65;;;1.55;;
22019;SDS011;51298;53.362;-1.518;2024-03-02T08:12:33;2.63;;;2.30;;
22019;SDS011;51298;53.362;-1.518;2024-03-02T08:15:20;1.85;;;1.75;;
22019;SDS011;51298;53.362;-1.518;2024-03-02T08:17:54;15.00;;;4.53;;
22019;SDS011;51298;53.362;-1.518;2024-03-02T08:20:40;6.53;;;1.73;;
22019;SDS011;51298;53.362;-1.518;2024-03-02T08:23:13;2.53;;;1.92;;
22019;SDS011;51298;53.362;-1.518;2024-03-02T08:26:01;2.88;;;2.60;;
22019;SDS011;51298;53.362;-1.518;2024-03-02T08:28:34;1.15;;;1.10;;
22019;SDS011;51298;53.362;-1.518;2024-03-02T08:31:21;1.20;;;1.20;;
22019;SDS011;51298;53.362;-1.518;2024-03-02T08:33:54;1.75;;;1.65;;
22019;SDS011;51298;53.362;-1.518;2024-03-02T08:36:43;2.22;;;2.10;;
22019;SDS011;51298;53.362;-1.518;2024-03-02T08:39:17;4.82;;;1.90;;
22019;SDS011;51298;53.362;-1.518;2024-03-02T08:42:04;0.82;;;0.80;;
22019;SDS011;51298;53.362;-1.518;2024-03-02T08:44:37;3.05;;;1.95;;
22019;SDS011;51298;53.362;-1.518;2024-03-02T08:47:24;2.75;;;2.55;;
22019;SDS011;51298;53.362;-1.518;2024-03-02T08:49:57;3.78;;;3.17;;
22019;SDS011;51298;53.362;-1.518;2024-03-02T08:52:46;25.48;;;3.25;;
22019;SDS011;51298;53.362;-1.518;2024-03-02T08:55:19;4.00;;;2.13;;
22019;SDS011;51298;53.362;-1.518;2024-03-02T08:58:05;5.75;;;2.15;;
22019;SDS011;51298;53.362;-1.518;2024-03-02T09:00:38;1.42;;;1.35;;
22019;SDS011;51298;53.362;-1.518;2024-03-02T09:03:24;1.73;;;1.10;;
22019;SDS011;51298;53.362;-1.518;2024-03-02T09:06:00;1.85;;;1.05;;
22019;SDS011;51298;53.362;-1.518;2024-03-02T09:08:46;2.83;;;1.85;;
22019;SDS011;51298;53.362;-1.518;2024-03-02T09:11:20;0.50;;;0.50;;
22019;SDS011;51298;53.362;-1.518;2024-03-02T09:14:07;0.60;;;0.60;;
22019;SDS011;51298;53.362;-1.518;2024-03-02T09:16:40;1.85;;;1.27;;
22019;SDS011;51298;53.362;-1.518;2024-03-02T09:19:29;3.58;;;2.22;;
22019;SDS011;51298;53.362;-1.518;2024-03-02T09:22:02;1.70;;;1.38;;
22019;SDS011;51298;53.362;-1.518;2024-03-02T09:24:48;1.42;;;1.00;;
22019;SDS011;51298;53.362;-1.518;2024-03-02T09:27:21;3.67;;;1.80;;
22019;SDS011;51298;53.362;-1.518;2024-03-02T09:30:08;6.10;;;2.05;;
22019;SDS011;51298;53.362;-1.518;2024-03-02T09:32:46;1.23;;;1.08;;
22019;SDS011;51298;53.362;-1.518;2024-03-02T09:35:32;2.83;;;1.17;;
22019;SDS011;51298;53.362;-1.518;2024-03-02T09:38:05;0.93;;;0.93;;
22019;SDS011;51298;53.362;-1.518;2024-03-02T09:40:52;1.67;;;1.55;;
22019;SDS011;51298;53.362;-1.518;2024-03-02T09:43:25;0.50;;;0.47;;
22019;SDS011;51298;53.362;-1.518;2024-03-02T09:46:12;2.58;;;1.38;;
22019;SDS011;51298;53.362;-1.518;2024-03-02T09:48:45;0.95;;;0.90;;
22019;SDS011;51298;53.362;-1.518;2024-03-02T09:51:32;2.00;;;1.10;;
22019;SDS011;51298;53.362;-1.518;2024-03-02T09:54:07;1.02;;;1.02;;
22019;SDS011;51298;53.362;-1.518;2024-03-02T09:56:53;0.73;;;0.55;;
22019;SDS011;51298;53.362;-1.518;2024-03-02T09:59:26;1.55;;;0.85;;
22019;SDS011;51298;53.362;-1.518;2024-03-02T10:02:15;0.52;;;0.52;;
22019;SDS011;51298;53.362;-1.518;2024-03-02T10:04:48;0.98;;;0.85;;
22019;SDS011;51298;53.362;-1.518;2024-03-02T10:07:36;1.80;;;0.90;;
22019;SDS011;51298;53.362;-1.518;2024-03-02T10:10:13;0.52;;;0.52;;
22019;SDS011;51298;53.362;-1.518;2024-03-02T10:13:04;1.42;;;0.95;;
22019;SDS011;51298;53.362;-1.518;2024-03-02T10:15:44;0.98;;;0.88;;
22019;SDS011;51298;53.362;-1.518;2024-03-02T10:18:30;1.00;;;1.00;;
22019;SDS011;51298;53.362;-1.518;2024-03-02T10:21:13;1.27;;;0.60;;
22019;SDS011;51298;53.362;-1.518;2024-03-02T10:24:08;1.70;;;1.60;;
22019;SDS011;51298;53.362;-1.518;2024-03-02T10:26:56;1.00;;;0.98;;
22019;SDS011;51298;53.362;-1.518;2024-03-02T10:29:47;1.70;;;0.75;;
22019;SDS011;51298;53.362;-1.518;2024-03-02T10:32:20;1.02;;;0.93;;
22019;SDS011;51298;53.362;-1.518;2024-03-02T10:35:09;0.45;;;0.45;;
22019;SDS011;51298;53.362;-1.518;2024-03-02T10:37:43;0.88;;;0.75;;
22019;SDS011;51298;53.362;-1.518;2024-03-02T10:40:30;1.35;;;1.02;;
22019;SDS011;51298;53.362;-1.518;2024-03-02T10:43:04;0.50;;;0.50;;
22019;SDS011;51298;53.362;-1.518;2024-03-02T10:45:50;0.73;;;0.40;;
22019;SDS011;51298;53.362;-1.518;2024-03-02T10:48:25;0.82;;;0.68;;
22019;SDS011;51298;53.362;-1.518;2024-03-02T10:51:13;2.63;;;1.10;;
22019;SDS011;51298;53.362;-1.518;2024-03-02T10:53:47;0.65;;;0.65;;
22019;SDS011;51298;53.362;-1.518;2024-03-02T10:56:34;1.10;;;0.80;;
22019;SDS011;51298;53.362;-1.518;2024-03-02T11:02:03;0.52;;;0.50;;
22019;SDS011;51298;53.362;-1.518;2024-03-02T11:04:36;0.22;;;0.22;;
22019;SDS011;51298;53.362;-1.518;2024-03-02T11:07:24;0.98;;;0.35;;
22019;SDS011;51298;53.362;-1.518;2024-03-02T11:10:00;0.63;;;0.63;;
22019;SDS011;51298;53.362;-1.518;2024-03-02T11:13:02;0.77;;;0.77;;
22019;SDS011;51298;53.362;-1.518;2024-03-02T11:15:47;2.40;;;1.15;;
22019;SDS011;51298;53.362;-1.518;2024-03-02T11:18:35;0.63;;;0.63;;
22019;SDS011;51298;53.362;-1.518;2024-03-02T11:21:08;1.45;;;1.05;;
22019;SDS011;51298;53.362;-1.518;2024-03-02T11:23:55;1.48;;;1.10;;
22019;SDS011;51298;53.362;-1.518;2024-03-02T11:26:28;0.28;;;0.25;;
22019;SDS011;51298;53.362;-1.518;2024-03-02T11:32:26;4.35;;;1.17;;
22019;SDS011;51298;53.362;-1.518;2024-03-02T11:35:11;1.83;;;1.08;;
22019;SDS011;51298;53.362;-1.518;2024-03-02T11:37:47;5.47;;;1.77;;
22019;SDS011;51298;53.362;-1.518;2024-03-02T11:40:38;0.90;;;0.90;;
22019;SDS011;51298;53.362;-1.518;2024-03-02T11:43:12;12.00;;;1.25;;
22019;SDS011;51298;53.362;-1.518;2024-03-02T11:46:03;2.42;;;1.90;;
22019;SDS011;51298;53.362;-1.518;2024-03-02T11:48:39;0.82;;;0.82;;
22019;SDS011;51298;53.362;-1.518;2024-03-02T11:51:25;0.50;;;0.50;;
22019;SDS011;51298;53.362;-1.518;2024-03-02T11:53:59;0.60;;;0.60;;
22019;SDS011;51298;53.362;-1.518;2024-03-02T11:56:46;9.68;;;1.02;;
22019;SDS011;51298;53.362;-1.518;2024-03-02T11:59:20;0.20;;;0.20;;
22019;SDS011;51298;53.362;-1.518;2024-03-02T12:02:12;1.35;;;1.02;;
22019;SDS011;51298;53.362;-1.518;2024-03-02T12:04:51;1.77;;;1.45;;
22019;SDS011;51298;53.362;-1.518;2024-03-02T12:07:38;1.23;;;1.15;;
22019;SDS011;51298;53.362;-1.518;2024-03-02T12:10:11;2.92;;;1.75;;
22019;SDS011;51298;53.362;-1.518;2024-03-02T12:13:01;2.50;;;2.13;;
22019;SDS011;51298;53.362;-1.518;2024-03-02T12:15:36;2.78;;;1.13;;
22019;SDS011;51298;53.362;-1.518;2024-03-02T12:18:23;4.40;;;0.75;;
22019;SDS011;51298;53.362;-1.518;2024-03-02T12:20:56;2.22;;;0.63;;
22019;SDS011;51298;53.362;-1.518;2024-03-02T12:23:45;0.73;;;0.73;;
22019;SDS011;51298;53.362;-1.518;2024-03-02T12:26:19;1.70;;;0.55;;
22019;SDS011;51298;53.362;-1.518;2024-03-02T12:29:06;1.80;;;0.77;;
22019;SDS011;51298;53.362;-1.518;2024-03-02T12:31:39;1.20;;;1.20;;
22019;SDS011;51298;53.362;-1.518;2024-03-02T12:34:25;0.77;;;0.77;;
22019;SDS011;51298;53.362;-1.518;2024-03-02T12:37:01;0.60;;;0.57;;
22019;SDS011;51298;53.362;-1.518;2024-03-02T12:39:47;0.85;;;0.57;;
22019;SDS011;51298;53.362;-1.518;2024-03-02T12:42:23;0.90;;;0.90;;
22019;SDS011;51298;53.362;-1.518;2024-03-02T12:45:09;6.47;;;0.75;;
22019;SDS011;51298;53.362;-1.518;2024-03-02T12:47:43;0.10;;;0.10;;
22019;SDS011;51298;53.362;-1.518;2024-03-02T12:50:32;0.20;;;0.10;;
22019;SDS011;51298;53.362;-1.518;2024-03-02T12:53:06;0.55;;;0.55;;
22019;SDS011;51298;53.362;-1.518;2024-03-02T12:55:53;0.60;;;0.60;;
22019;SDS011;51298;53.362;-1.518;2024-03-02T12:58:28;0.85;;;0.30;;
22019;SDS011;51298;53.362;-1.518;2024-03-02T13:01:16;0.98;;;0.70;;
22019;SDS011;51298;53.362;-1.518;2024-03-02T13:03:51;0.00;;;0.00;;
22019;SDS011;51298;53.362;-1.518;2024-03-02T13:06:38;0.40;;;0.20;;
22019;SDS011;51298;53.362;-1.518;2024-03-02T13:09:12;0.00;;;0.00;;
22019;SDS011;51298;53.362;-1.518;2024-03-02T13:11:58;0.17;;;0.17;;
22019;SDS011;51298;53.362;-1.518;2024-03-02T13:14:32;0.40;;;0.40;;
22019;SDS011;51298;53.362;-1.518;2024-03-02T13:17:19;0.10;;;0.10;;
22019;SDS011;51298;53.362;-1.518;2024-03-02T13:19:56;1.58;;;0.15;;
22019;SDS011;51298;53.362;-1.518;2024-03-02T13:22:48;0.28;;;0.13;;
22019;SDS011;51298;53.362;-1.518;2024-03-02T13:25:21;0.20;;;0.20;;
22019;SDS011;51298;53.362;-1.518;2024-03-02T13:28:08;0.25;;;0.25;;
22019;SDS011;51298;53.362;-1.518;2024-03-02T13:30:41;0.43;;;0.30;;
22019;SDS011;51298;53.362;-1.518;2024-03-02T13:33:29;1.15;;;0.60;;
22019;SDS011;51298;53.362;-1.518;2024-03-02T13:36:03;0.20;;;0.20;;
22019;SDS011;51298;53.362;-1.518;2024-03-02T13:38:50;1.38;;;0.75;;
22019;SDS011;51298;53.362;-1.518;2024-03-02T13:41:26;5.88;;;0.73;;
22019;SDS011;51298;53.362;-1.518;2024-03-02T13:44:12;0.52;;;0.52;;
22019;SDS011;51298;53.362;-1.518;2024-03-02T13:46:45;0.10;;;0.05;;
22019;SDS011;51298;53.362;-1.518;2024-03-02T13:49:31;0.40;;;0.13;;
22019;SDS011;51298;53.362;-1.518;2024-03-02T13:52:14;0.40;;;0.20;;
22019;SDS011;51298;53.362;-1.518;2024-03-02T13:54:49;0.15;;;0.10;;
22019;SDS011;51298;53.362;-1.518;2024-03-02T13:57:36;0.20;;;0.20;;
22019;SDS011;51298;53.362;-1.518;2024-03-02T14:00:09;0.40;;;0.40;;
22019;SDS011;51298;53.362;-1.518;2024-03-02T14:02:56;0.20;;;0.20;;
22019;SDS011;51298;53.362;-1.518;2024-03-02T14:05:29;0.75;;;0.35;;
22019;SDS011;51298;53.362;-1.518;2024-03-02T14:08:15;0.10;;;0.10;;
22019;SDS011;51298;53.362;-1.518;2024-03-02T14:10:49;0.25;;;0.25;;
22019;SDS011;51298;53.362;-1.518;2024-03-02T14:13:38;0.25;;;0.20;;
22019;SDS011;51298;53.362;-1.518;2024-03-02T14:16:11;0.03;;;0.03;;
22019;SDS011;51298;53.362;-1.518;2024-03-02T14:18:56;0.03;;;0.03;;
22019;SDS011;51298;53.362;-1.518;2024-03-02T14:21:30;6.97;;;1.40;;
22019;SDS011;51298;53.362;-1.518;2024-03-02T14:24:16;0.75;;;0.35;;
22019;SDS011;51298;53.362;-1.518;2024-03-02T14:26:49;0.45;;;0.45;;
22019;SDS011;51298;53.362;-1.518;2024-03-02T14:29:42;0.10;;;0.10;;
22019;SDS011;51298;53.362;-1.518;2024-03-02T14:32:15;0.25;;;0.25;;
22019;SDS011;51298;53.362;-1.518;2024-03-02T14:35:02;0.28;;;0.28;;
22019;SDS011;51298;53.362;-1.518;2024-03-02T14:37:35;0.10;;;0.10;;
22019;SDS011;51298;53.362;-1.518;2024-03-02T14:40:22;0.00;;;0.00;;
22019;SDS011;51298;53.362;-1.518;2024-03-02T14:43:01;2.08;;;0.85;;
22019;SDS011;51298;53.362;-1.518;2024-03-02T14:45:47;0.10;;;0.00;;
22019;SDS011;51298;53.362;-1.518;2024-03-02T14:48:20;0.13;;;0.13;;
22019;SDS011;51298;53.362;-1.518;2024-03-02T14:51:08;0.22;;;0.22;;
22019;SDS011;51298;53.362;-1.518;2024-03-02T14:53:43;0.10;;;0.10;;
22019;SDS011;51298;53.362;-1.518;2024-03-02T14:56:28;0.15;;;0.15;;
22019;SDS011;51298;53.362;-1.518;2024-03-02T14:59:01;0.88;;;0.63;;
22019;SDS011;51298;53.362;-1.518;2024-03-02T15:01:49;0.80;;;0.80;;
22019;SDS011;51298;53.362;-1.518;2024-03-02T15:04:22;0.13;;;0.13;;
22019;SDS011;51298;53.362;-1.518;2024-03-02T15:07:08;1.48;;;0.30;;
22019;SDS011;51298;53.362;-1.518;2024-03-02T15:09:42;0.30;;;0.13;;
22019;SDS011;51298;53.362;-1.518;2024-03-02T15:12:29;1.55;;;0.30;;
22019;SDS011;51298;53.362;-1.518;2024-03-02T15:15:02;0.20;;;0.20;;
22019;SDS011;51298;53.362;-1.518;2024-03-02T15:17:51;0.25;;;0.25;;
22019;SDS011;51298;53.362;-1.518;2024-03-02T15:20:25;0.55;;;0.35;;
22019;SDS011;51298;53.362;-1.518;2024-03-02T15:23:10;1.35;;;1.02;;
22019;SDS011;51298;53.362;-1.518;2024-03-02T15:25:43;1.73;;;0.45;;
22019;SDS011;51298;53.362;-1.518;2024-03-02T15:28:31;0.20;;;0.20;;
22019;SDS011;51298;53.362;-1.518;2024-03-02T15:31:04;0.25;;;0.25;;
22019;SDS011;51298;53.362;-1.518;2024-03-02T15:33:52;0.43;;;0.43;;
22019;SDS011;51298;53.362;-1.518;2024-03-02T15:36:26;0.00;;;0.00;;
22019;SDS011;51298;53.362;-1.518;2024-03-02T15:39:12;1.05;;;0.63;;
22019;SDS011;51298;53.362;-1.518;2024-03-02T15:41:45;0.45;;;0.38;;
22019;SDS011;51298;53.362;-1.518;2024-03-02T15:44:32;0.38;;;0.20;;
22019;SDS011;51298;53.362;-1.518;2024-03-02T15:47:05;4.07;;;0.75;;
22019;SDS011;51298;53.362;-1.518;2024-03-02T15:49:50;0.70;;;0.65;;
22019;SDS011;51298;53.362;-1.518;2024-03-02T15:52:29;0.10;;;0.10;;
22019;SDS011;51298;53.362;-1.518;2024-03-02T15:55:15;1.52;;;0.20;;
22019;SDS011;51298;53.362;-1.518;2024-03-02T15:57:48;0.38;;;0.32;;
22019;SDS011;51298;53.362;-1.518;2024-03-02T16:00:34;0.30;;;0.10;;